Impacts TAF Board
For situational awareness. Not to be used for flight planning purposes.
IDs:

KSEA - Seattle-Tacoma Intl, WA, US

Issued at 1120 UTC 24 Aug 2019
Updated at 1319 UTC 24 Aug 2019
Potential Impact None Slight Moderate High
Time<<25/02Z 25/03Z 25/04Z 25/05Z 25/06Z 25/07Z 25/08Z 25/09Z 25/10Z 25/11Z 25/12Z 25/13Z 25/14Z>>
Type PRVL PRVL PRVL PRVL PRVL PRVL PRVL PRVL PRVL PRVL PRVL PRVL PRVL
VIS >6 >6 >6 >6 >6 >6 >6 >6 >6 >6 >6 >6 >6
CIG 60 60 60 60 60 60 60 60 50 50 50 50 50
Cover BKN BKN BKN BKN BKN BKN BKN BKN OVC OVC OVC OVC OVC
FltCat VFR VFR VFR VFR VFR VFR VFR VFR VFR VFR VFR VFR VFR
WX -- -- -- -- -- -- -- -- -- -- -- -- --
WDir 330 330 330 330 330 330 330 330 220 220 220 220 220
WSpd 8 8 8 8 8 8 8 8 6 6 6 6 6
WGst -- -- -- -- -- -- -- -- -- -- -- -- --
Raw TAF
KSEA 241120Z 2412/2518 35004KT P6SM OVC050
  FM241400 19006KT P6SM FEW025 SCT060
  FM241800 22007KT P6SM SCT060
  FM242200 25007KT P6SM BKN060
  FM250200 33008KT P6SM BKN060
  FM251000 22006KT P6SM OVC050


METAR Board
Radar Display
Forecast Discussion
For situational awareness. Not to be used for flight planning purposes.